Canistota, South Dakota
Current Conditions -  °F | °C
As of 7:47 PM on Wednesday 22 Oct 2014 (Local Time) from KFSD Reporting Station
Overcast Overcast  
Wind Chill: 58°   Ceiling: 900
Heat Index: 58°   Visibility: 10mi
Dew Point: 56°   Wind: 6mph
Humidity: 93%   Direction: 250°WSW
Pressure: 29.99"   Gusts: NA
Location:  43.6°N, 97.29°W
Report Text: KFSD 230047Z 25005KT 10SM BKN009 BKN042 OVC075 14/13 A2999 RMK AO2 T01440133
Loading
Personal Weather Stations






























Interactive Weather Map New forecast layout! Learn more

10-Day Weather Forecast

Advertisements
Track Severe Weather on mobile